sensor_id;sensor_type;location;lat;lon;timestamp;P1;durP1;ratioP1;P2;durP2;ratioP2
24325;SDS011;12448;45.532;5.290;2024-03-08T00:33:35;8.50;;;4.72;;
24325;SDS011;12448;45.532;5.290;2024-03-08T01:04:34;11.27;;;5.72;;
24325;SDS011;12448;45.532;5.290;2024-03-08T01:11:35;7.65;;;5.00;;
24325;SDS011;12448;45.532;5.290;2024-03-08T01:31:04;8.73;;;4.30;;
24325;SDS011;12448;45.532;5.290;2024-03-08T02:02:05;10.73;;;4.13;;
24325;SDS011;12448;45.532;5.290;2024-03-08T02:08:36;9.25;;;4.10;;
24325;SDS011;12448;45.532;5.290;2024-03-08T02:11:44;7.97;;;4.30;;
24325;SDS011;12448;45.532;5.290;2024-03-08T02:14:34;12.25;;;5.15;;
24325;SDS011;12448;45.532;5.290;2024-03-08T02:17:50;9.00;;;4.78;;
24325;SDS011;12448;45.532;5.290;2024-03-08T02:20:22;11.35;;;4.63;;
24325;SDS011;12448;45.532;5.290;2024-03-08T02:23:14;12.27;;;5.00;;
24325;SDS011;12448;45.532;5.290;2024-03-08T02:25:44;13.25;;;5.45;;
24325;SDS011;12448;45.532;5.290;2024-03-08T03:38:02;8.50;;;4.95;;
24325;SDS011;12448;45.532;5.290;2024-03-08T03:51:36;8.07;;;3.88;;
24325;SDS011;12448;45.532;5.290;2024-03-08T03:54:12;8.80;;;4.15;;
24325;SDS011;12448;45.532;5.290;2024-03-08T04:00:57;5.47;;;3.40;;
24325;SDS011;12448;45.532;5.290;2024-03-08T04:03:28;8.73;;;3.88;;
24325;SDS011;12448;45.532;5.290;2024-03-08T04:06:09;6.65;;;3.47;;
24325;SDS011;12448;45.532;5.290;2024-03-08T04:08:37;8.90;;;3.85;;
24325;SDS011;12448;45.532;5.290;2024-03-08T04:26:59;5.88;;;3.10;;
24325;SDS011;12448;45.532;5.290;2024-03-08T04:29:26;9.45;;;3.67;;
24325;SDS011;12448;45.532;5.290;2024-03-08T04:49:48;11.27;;;4.28;;
24325;SDS011;12448;45.532;5.290;2024-03-08T04:52:26;5.78;;;4.00;;
24325;SDS011;12448;45.532;5.290;2024-03-08T04:55:22;9.15;;;4.10;;
24325;SDS011;12448;45.532;5.290;2024-03-08T04:58:05;6.68;;;3.80;;
24325;SDS011;12448;45.532;5.290;2024-03-08T05:01:21;8.93;;;4.40;;
24325;SDS011;12448;45.532;5.290;2024-03-08T05:03:47;7.55;;;4.43;;
24325;SDS011;12448;45.532;5.290;2024-03-08T05:06:22;8.30;;;4.88;;
24325;SDS011;12448;45.532;5.290;2024-03-08T05:08:48;8.35;;;4.53;;
24325;SDS011;12448;45.532;5.290;2024-03-08T05:11:14;9.20;;;4.95;;
24325;SDS011;12448;45.532;5.290;2024-03-08T05:13:55;7.90;;;5.25;;
24325;SDS011;12448;45.532;5.290;2024-03-08T05:19:38;13.13;;;6.07;;
24325;SDS011;12448;45.532;5.290;2024-03-08T05:22:04;7.97;;;5.22;;
24325;SDS011;12448;45.532;5.290;2024-03-08T05:24:41;9.98;;;6.28;;
24325;SDS011;12448;45.532;5.290;2024-03-08T05:28:13;9.32;;;5.88;;
24325;SDS011;12448;45.532;5.290;2024-03-08T05:33:08;8.50;;;5.28;;
24325;SDS011;12448;45.532;5.290;2024-03-08T05:52:19;7.38;;;4.95;;
24325;SDS011;12448;45.532;5.290;2024-03-08T06:26:30;14.00;;;7.38;;
24325;SDS011;12448;45.532;5.290;2024-03-08T06:33:17;12.15;;;7.85;;
24325;SDS011;12448;45.532;5.290;2024-03-08T06:36:23;12.48;;;8.23;;
24325;SDS011;12448;45.532;5.290;2024-03-08T07:18:07;12.40;;;8.48;;
24325;SDS011;12448;45.532;5.290;2024-03-08T07:31:47;20.92;;;12.25;;
24325;SDS011;12448;45.532;5.290;2024-03-08T07:35:03;18.75;;;10.63;;
24325;SDS011;12448;45.532;5.290;2024-03-08T07:38:00;17.17;;;9.93;;
24325;SDS011;12448;45.532;5.290;2024-03-08T07:40:50;15.43;;;9.73;;
24325;SDS011;12448;45.532;5.290;2024-03-08T07:43:29;14.10;;;9.18;;
24325;SDS011;12448;45.532;5.290;2024-03-08T07:47:16;13.90;;;8.80;;
24325;SDS011;12448;45.532;5.290;2024-03-08T07:50:12;13.45;;;8.95;;
24325;SDS011;12448;45.532;5.290;2024-03-08T07:53:00;13.02;;;8.65;;
24325;SDS011;12448;45.532;5.290;2024-03-08T07:55:43;16.80;;;9.20;;
24325;SDS011;12448;45.532;5.290;2024-03-08T07:58:18;15.73;;;9.50;;
24325;SDS011;12448;45.532;5.290;2024-03-08T08:01:45;16.63;;;9.50;;
24325;SDS011;12448;45.532;5.290;2024-03-08T08:04:02;18.98;;;9.50;;
24325;SDS011;12448;45.532;5.290;2024-03-08T08:06:31;15.10;;;9.43;;
24325;SDS011;12448;45.532;5.290;2024-03-08T08:08:58;14.68;;;8.85;;
24325;SDS011;12448;45.532;5.290;2024-03-08T08:29:46;18.30;;;11.73;;
24325;SDS011;12448;45.532;5.290;2024-03-08T08:36:02;17.05;;;11.13;;
24325;SDS011;12448;45.532;5.290;2024-03-08T08:38:48;29.58;;;18.38;;
24325;SDS011;12448;45.532;5.290;2024-03-08T09:08:56;19.58;;;9.73;;
24325;SDS011;12448;45.532;5.290;2024-03-08T09:11:22;32.97;;;16.33;;
24325;SDS011;12448;45.532;5.290;2024-03-08T09:13:50;23.52;;;12.15;;
24325;SDS011;12448;45.532;5.290;2024-03-08T09:16:15;28.58;;;14.68;;
24325;SDS011;12448;45.532;5.290;2024-03-08T09:21:12;45.88;;;23.20;;
24325;SDS011;12448;45.532;5.290;2024-03-08T09:23:38;27.23;;;14.55;;
24325;SDS011;12448;45.532;5.290;2024-03-08T09:26:06;23.73;;;12.10;;
24325;SDS011;12448;45.532;5.290;2024-03-08T09:28:34;26.83;;;15.05;;
24325;SDS011;12448;45.532;5.290;2024-03-08T09:31:00;26.23;;;15.23;;
24325;SDS011;12448;45.532;5.290;2024-03-08T09:33:26;46.05;;;25.30;;
24325;SDS011;12448;45.532;5.290;2024-03-08T09:35:53;61.83;;;28.80;;
24325;SDS011;12448;45.532;5.290;2024-03-08T09:38:19;40.35;;;22.38;;
24325;SDS011;12448;45.532;5.290;2024-03-08T09:40:45;35.88;;;19.17;;
24325;SDS011;12448;45.532;5.290;2024-03-08T09:43:11;45.85;;;24.73;;
24325;SDS011;12448;45.532;5.290;2024-03-08T09:45:37;52.72;;;23.90;;
24325;SDS011;12448;45.532;5.290;2024-03-08T09:48:09;87.72;;;43.15;;
24325;SDS011;12448;45.532;5.290;2024-03-08T09:50:37;48.15;;;23.80;;
24325;SDS011;12448;45.532;5.290;2024-03-08T09:53:09;82.25;;;41.80;;
24325;SDS011;12448;45.532;5.290;2024-03-08T09:55:37;21.02;;;12.55;;
24325;SDS011;12448;45.532;5.290;2024-03-08T09:58:06;16.00;;;10.45;;
24325;SDS011;12448;45.532;5.290;2024-03-08T10:00:55;46.00;;;24.52;;
24325;SDS011;12448;45.532;5.290;2024-03-08T10:03:26;34.83;;;19.67;;
24325;SDS011;12448;45.532;5.290;2024-03-08T10:05:52;27.00;;;15.23;;
24325;SDS011;12448;45.532;5.290;2024-03-08T10:08:21;36.25;;;19.80;;
24325;SDS011;12448;45.532;5.290;2024-03-08T10:10:47;26.85;;;15.95;;
24325;SDS011;12448;45.532;5.290;2024-03-08T10:13:14;29.05;;;15.52;;
24325;SDS011;12448;45.532;5.290;2024-03-08T10:15:43;15.40;;;10.27;;
24325;SDS011;12448;45.532;5.290;2024-03-08T10:18:09;15.70;;;10.00;;
24325;SDS011;12448;45.532;5.290;2024-03-08T10:20:35;15.25;;;8.70;;
24325;SDS011;12448;45.532;5.290;2024-03-08T10:23:01;13.63;;;9.50;;
24325;SDS011;12448;45.532;5.290;2024-03-08T10:25:29;13.80;;;9.93;;
24325;SDS011;12448;45.532;5.290;2024-03-08T10:27:59;14.20;;;8.75;;
24325;SDS011;12448;45.532;5.290;2024-03-08T10:30:24;16.67;;;9.50;;
24325;SDS011;12448;45.532;5.290;2024-03-08T10:32:50;17.15;;;10.18;;
24325;SDS011;12448;45.532;5.290;2024-03-08T10:35:17;12.27;;;8.55;;
24325;SDS011;12448;45.532;5.290;2024-03-08T10:37:47;11.75;;;7.00;;
24325;SDS011;12448;45.532;5.290;2024-03-08T10:40:18;14.80;;;10.50;;
24325;SDS011;12448;45.532;5.290;2024-03-08T10:42:57;17.98;;;10.30;;
24325;SDS011;12448;45.532;5.290;2024-03-08T10:50:49;14.73;;;9.48;;
24325;SDS011;12448;45.532;5.290;2024-03-08T10:53:18;18.95;;;10.70;;
24325;SDS011;12448;45.532;5.290;2024-03-08T10:55:47;21.60;;;12.15;;
24325;SDS011;12448;45.532;5.290;2024-03-08T10:58:14;49.13;;;26.35;;
24325;SDS011;12448;45.532;5.290;2024-03-08T11:00:42;19.70;;;12.15;;
24325;SDS011;12448;45.532;5.290;2024-03-08T11:03:07;18.75;;;11.32;;
24325;SDS011;12448;45.532;5.290;2024-03-08T11:06:08;14.15;;;8.60;;
24325;SDS011;12448;45.532;5.290;2024-03-08T11:08:41;36.00;;;20.95;;
24325;SDS011;12448;45.532;5.290;2024-03-08T11:11:23;16.42;;;10.00;;
24325;SDS011;12448;45.532;5.290;2024-03-08T11:13:56;15.90;;;9.93;;
24325;SDS011;12448;45.532;5.290;2024-03-08T11:19:05;20.05;;;9.93;;
24325;SDS011;12448;45.532;5.290;2024-03-08T11:21:50;14.88;;;10.10;;
24325;SDS011;12448;45.532;5.290;2024-03-08T11:24:26;17.92;;;10.10;;
24325;SDS011;12448;45.532;5.290;2024-03-08T11:26:54;16.50;;;9.98;;
24325;SDS011;12448;45.532;5.290;2024-03-08T11:32:10;338.73;;;86.47;;
24325;SDS011;12448;45.532;5.290;2024-03-08T11:34:45;78.57;;;24.50;;
24325;SDS011;12448;45.532;5.290;2024-03-08T11:37:21;187.35;;;58.03;;
24325;SDS011;12448;45.532;5.290;2024-03-08T11:42:14;100.68;;;39.50;;
24325;SDS011;12448;45.532;5.290;2024-03-08T11:44:42;156.52;;;62.10;;
24325;SDS011;12448;45.532;5.290;2024-03-08T11:47:11;192.57;;;80.82;;
24325;SDS011;12448;45.532;5.290;2024-03-08T11:49:37;52.75;;;26.23;;
24325;SDS011;12448;45.532;5.290;2024-03-08T11:52:04;69.22;;;35.13;;
24325;SDS011;12448;45.532;5.290;2024-03-08T11:54:30;46.63;;;23.92;;
24325;SDS011;12448;45.532;5.290;2024-03-08T11:56:59;24.75;;;13.75;;
24325;SDS011;12448;45.532;5.290;2024-03-08T11:59:26;24.00;;;14.23;;
24325;SDS011;12448;45.532;5.290;2024-03-08T12:02:05;161.77;;;60.72;;
24325;SDS011;12448;45.532;5.290;2024-03-08T12:04:31;110.93;;;44.20;;
24325;SDS011;12448;45.532;5.290;2024-03-08T12:07:01;21.85;;;10.75;;
24325;SDS011;12448;45.532;5.290;2024-03-08T12:09:28;17.98;;;10.45;;
24325;SDS011;12448;45.532;5.290;2024-03-08T12:11:54;24.33;;;13.65;;
24325;SDS011;12448;45.532;5.290;2024-03-08T12:14:20;16.33;;;10.13;;
24325;SDS011;12448;45.532;5.290;2024-03-08T12:16:45;20.15;;;11.30;;
24325;SDS011;12448;45.532;5.290;2024-03-08T12:19:11;66.95;;;31.63;;
24325;SDS011;12448;45.532;5.290;2024-03-08T12:21:37;41.97;;;26.52;;
24325;SDS011;12448;45.532;5.290;2024-03-08T12:24:09;21.83;;;14.55;;
24325;SDS011;12448;45.532;5.290;2024-03-08T12:26:36;17.98;;;13.00;;
24325;SDS011;12448;45.532;5.290;2024-03-08T12:29:16;17.00;;;11.20;;
24325;SDS011;12448;45.532;5.290;2024-03-08T12:31:47;17.30;;;10.18;;
24325;SDS011;12448;45.532;5.290;2024-03-08T12:34:16;14.40;;;9.23;;
24325;SDS011;12448;45.532;5.290;2024-03-08T12:36:46;12.98;;;7.68;;
24325;SDS011;12448;45.532;5.290;2024-03-08T12:39:17;14.60;;;9.65;;
24325;SDS011;12448;45.532;5.290;2024-03-08T12:41:47;16.42;;;8.77;;
24325;SDS011;12448;45.532;5.290;2024-03-08T12:44:14;14.70;;;10.35;;
24325;SDS011;12448;45.532;5.290;2024-03-08T12:46:40;15.32;;;8.93;;
24325;SDS011;12448;45.532;5.290;2024-03-08T12:49:07;19.42;;;13.82;;
24325;SDS011;12448;45.532;5.290;2024-03-08T12:51:34;14.50;;;10.23;;
24325;SDS011;12448;45.532;5.290;2024-03-08T12:54:00;13.95;;;10.07;;
24325;SDS011;12448;45.532;5.290;2024-03-08T12:56:30;15.73;;;10.10;;
24325;SDS011;12448;45.532;5.290;2024-03-08T12:58:57;13.13;;;8.00;;
24325;SDS011;12448;45.532;5.290;2024-03-08T13:01:23;15.77;;;8.32;;
24325;SDS011;12448;45.532;5.290;2024-03-08T13:03:49;13.52;;;9.25;;
24325;SDS011;12448;45.532;5.290;2024-03-08T13:06:15;12.15;;;9.45;;
24325;SDS011;12448;45.532;5.290;2024-03-08T13:08:41;14.10;;;9.43;;
24325;SDS011;12448;45.532;5.290;2024-03-08T13:11:09;15.10;;;9.32;;
24325;SDS011;12448;45.532;5.290;2024-03-08T13:13:37;15.02;;;9.02;;
24325;SDS011;12448;45.532;5.290;2024-03-08T13:16:05;11.52;;;6.30;;
24325;SDS011;12448;45.532;5.290;2024-03-08T13:18:34;4.63;;;2.20;;
24325;SDS011;12448;45.532;5.290;2024-03-08T13:21:00;4.38;;;2.00;;
24325;SDS011;12448;45.532;5.290;2024-03-08T13:23:36;9.68;;;2.28;;
24325;SDS011;12448;45.532;5.290;2024-03-08T13:26:09;4.88;;;2.65;;
24325;SDS011;12448;45.532;5.290;2024-03-08T13:28:40;4.68;;;2.20;;
24325;SDS011;12448;45.532;5.290;2024-03-08T13:31:13;3.35;;;2.20;;
24325;SDS011;12448;45.532;5.290;2024-03-08T13:33:40;4.57;;;2.40;;
24325;SDS011;12448;45.532;5.290;2024-03-08T13:36:07;5.65;;;2.70;;
24325;SDS011;12448;45.532;5.290;2024-03-08T13:38:40;4.65;;;2.42;;
24325;SDS011;12448;45.532;5.290;2024-03-08T13:41:13;10.60;;;6.28;;
24325;SDS011;12448;45.532;5.290;2024-03-08T13:43:43;5.38;;;2.35;;
24325;SDS011;12448;45.532;5.290;2024-03-08T13:46:12;5.80;;;2.38;;
24325;SDS011;12448;45.532;5.290;2024-03-08T13:48:37;3.58;;;1.98;;
24325;SDS011;12448;45.532;5.290;2024-03-08T13:51:04;6.55;;;2.25;;
24325;SDS011;12448;45.532;5.290;2024-03-08T13:53:31;6.00;;;2.00;;
24325;SDS011;12448;45.532;5.290;2024-03-08T13:55:58;5.38;;;2.35;;
24325;SDS011;12448;45.532;5.290;2024-03-08T13:58:27;7.72;;;2.35;;
24325;SDS011;12448;45.532;5.290;2024-03-08T14:00:53;3.53;;;1.85;;
24325;SDS011;12448;45.532;5.290;2024-03-08T14:03:18;4.38;;;1.90;;
24325;SDS011;12448;45.532;5.290;2024-03-08T14:05:45;7.15;;;2.00;;
24325;SDS011;12448;45.532;5.290;2024-03-08T14:08:11;2.42;;;1.60;;
24325;SDS011;12448;45.532;5.290;2024-03-08T14:10:37;5.50;;;1.65;;
24325;SDS011;12448;45.532;5.290;2024-03-08T14:13:03;7.75;;;1.85;;
24325;SDS011;12448;45.532;5.290;2024-03-08T14:15:34;7.10;;;3.55;;
24325;SDS011;12448;45.532;5.290;2024-03-08T14:18:00;9.88;;;4.10;;
24325;SDS011;12448;45.532;5.290;2024-03-08T14:20:27;3.78;;;2.60;;
24325;SDS011;12448;45.532;5.290;2024-03-08T14:22:53;3.30;;;2.17;;
24325;SDS011;12448;45.532;5.290;2024-03-08T14:25:19;3.33;;;2.08;;
24325;SDS011;12448;45.532;5.290;2024-03-08T14:27:48;6.45;;;2.10;;
24325;SDS011;12448;45.532;5.290;2024-03-08T14:30:15;5.15;;;2.00;;
24325;SDS011;12448;45.532;5.290;2024-03-08T14:33:00;6.88;;;2.22;;
24325;SDS011;12448;45.532;5.290;2024-03-08T14:35:27;5.78;;;2.50;;
24325;SDS011;12448;45.532;5.290;2024-03-08T14:37:54;5.38;;;1.92;;
24325;SDS011;12448;45.532;5.290;2024-03-08T14:40:22;3.85;;;1.90;;
24325;SDS011;12448;45.532;5.290;2024-03-08T14:42:49;3.03;;;1.73;;
24325;SDS011;12448;45.532;5.290;2024-03-08T14:45:15;4.35;;;1.88;;
24325;SDS011;12448;45.532;5.290;2024-03-08T14:47:41;5.65;;;3.40;;
24325;SDS011;12448;45.532;5.290;2024-03-08T14:50:07;6.53;;;2.22;;
24325;SDS011;12448;45.532;5.290;2024-03-08T14:52:37;4.07;;;1.98;;
24325;SDS011;12448;45.532;5.290;2024-03-08T14:55:04;3.55;;;1.83;;
24325;SDS011;12448;45.532;5.290;2024-03-08T14:57:31;6.00;;;2.67;;
24325;SDS011;12448;45.532;5.290;2024-03-08T14:59:57;6.00;;;2.72;;
24325;SDS011;12448;45.532;5.290;2024-03-08T15:02:30;5.13;;;2.30;;
24325;SDS011;12448;45.532;5.290;2024-03-08T15:04:57;4.68;;;2.30;;
24325;SDS011;12448;45.532;5.290;2024-03-08T15:07:23;12.55;;;2.53;;
24325;SDS011;12448;45.532;5.290;2024-03-08T15:09:50;3.95;;;2.38;;
24325;SDS011;12448;45.532;5.290;2024-03-08T15:12:16;6.28;;;2.08;;
24325;SDS011;12448;45.532;5.290;2024-03-08T15:14:42;5.70;;;2.45;;
24325;SDS011;12448;45.532;5.290;2024-03-08T15:17:09;6.78;;;3.13;;
24325;SDS011;12448;45.532;5.290;2024-03-08T15:19:44;5.70;;;2.65;;
24325;SDS011;12448;45.532;5.290;2024-03-08T15:22:10;6.70;;;2.50;;
24325;SDS011;12448;45.532;5.290;2024-03-08T15:24:36;4.85;;;2.83;;
24325;SDS011;12448;45.532;5.290;2024-03-08T15:27:02;4.88;;;2.10;;
24325;SDS011;12448;45.532;5.290;2024-03-08T15:29:28;4.78;;;2.30;;
24325;SDS011;12448;45.532;5.290;2024-03-08T15:31:54;3.35;;;2.00;;
24325;SDS011;12448;45.532;5.290;2024-03-08T15:34:20;6.57;;;2.78;;
24325;SDS011;12448;45.532;5.290;2024-03-08T15:36:50;7.65;;;2.25;;
24325;SDS011;12448;45.532;5.290;2024-03-08T15:39:17;5.38;;;2.40;;
24325;SDS011;12448;45.532;5.290;2024-03-08T15:41:45;4.32;;;2.20;;
24325;SDS011;12448;45.532;5.290;2024-03-08T15:44:11;4.43;;;2.53;;
24325;SDS011;12448;45.532;5.290;2024-03-08T15:46:38;4.78;;;1.75;;
24325;SDS011;12448;45.532;5.290;2024-03-08T15:49:08;7.88;;;1.98;;
24325;SDS011;12448;45.532;5.290;2024-03-08T15:51:33;2.90;;;1.73;;
24325;SDS011;12448;45.532;5.290;2024-03-08T15:54:01;4.68;;;1.80;;
24325;SDS011;12448;45.532;5.290;2024-03-08T15:56:29;2.33;;;1.40;;
24325;SDS011;12448;45.532;5.290;2024-03-08T15:58:56;3.40;;;1.63;;
24325;SDS011;12448;45.532;5.290;2024-03-08T16:01:22;3.47;;;1.67;;
24325;SDS011;12448;45.532;5.290;2024-03-08T16:03:49;3.08;;;1.70;;
24325;SDS011;12448;45.532;5.290;2024-03-08T16:06:16;4.35;;;1.77;;
24325;SDS011;12448;45.532;5.290;2024-03-08T16:08:46;4.00;;;1.92;;
24325;SDS011;12448;45.532;5.290;2024-03-08T16:11:12;4.07;;;1.80;;
24325;SDS011;12448;45.532;5.290;2024-03-08T16:13:38;7.22;;;1.67;;
24325;SDS011;12448;45.532;5.290;2024-03-08T16:16:04;2.88;;;1.85;;
24325;SDS011;12448;45.532;5.290;2024-03-08T16:18:30;5.50;;;2.30;;
24325;SDS011;12448;45.532;5.290;2024-03-08T16:20:57;4.38;;;2.08;;
24325;SDS011;12448;45.532;5.290;2024-03-08T16:23:23;6.30;;;2.47;;
24325;SDS011;12448;45.532;5.290;2024-03-08T16:25:49;3.88;;;2.38;;
24325;SDS011;12448;45.532;5.290;2024-03-08T16:28:15;6.00;;;2.17;;
24325;SDS011;12448;45.532;5.290;2024-03-08T16:30:42;4.43;;;2.30;;
24325;SDS011;12448;45.532;5.290;2024-03-08T16:33:13;5.35;;;2.00;;
24325;SDS011;12448;45.532;5.290;2024-03-08T16:35:39;3.40;;;1.83;;
24325;SDS011;12448;45.532;5.290;2024-03-08T16:38:11;4.95;;;2.00;;
24325;SDS011;12448;45.532;5.290;2024-03-08T16:40:38;2.85;;;1.65;;
24325;SDS011;12448;45.532;5.290;2024-03-08T16:43:04;4.28;;;1.63;;
24325;SDS011;12448;45.532;5.290;2024-03-08T16:45:30;4.95;;;2.00;;
24325;SDS011;12448;45.532;5.290;2024-03-08T16:47:56;3.00;;;1.70;;
24325;SDS011;12448;45.532;5.290;2024-03-08T16:50:21;5.00;;;3.78;;
24325;SDS011;12448;45.532;5.290;2024-03-08T16:52:48;2.20;;;1.50;;
24325;SDS011;12448;45.532;5.290;2024-03-08T16:55:16;3.58;;;2.28;;
24325;SDS011;12448;45.532;5.290;2024-03-08T16:57:42;8.00;;;1.50;;
24325;SDS011;12448;45.532;5.290;2024-03-08T17:00:19;4.68;;;1.63;;
24325;SDS011;12448;45.532;5.290;2024-03-08T17:05:18;13.75;;;9.85;;
24325;SDS011;12448;45.532;5.290;2024-03-08T17:07:44;5.38;;;4.30;;
24325;SDS011;12448;45.532;5.290;2024-03-08T17:10:13;6.05;;;4.50;;
24325;SDS011;12448;45.532;5.290;2024-03-08T17:13:06;7.22;;;3.60;;
24325;SDS011;12448;45.532;5.290;2024-03-08T17:15:33;15.15;;;9.25;;
24325;SDS011;12448;45.532;5.290;2024-03-08T17:18:00;19.60;;;10.65;;
24325;SDS011;12448;45.532;5.290;2024-03-08T17:20:30;9.00;;;6.80;;
24325;SDS011;12448;45.532;5.290;2024-03-08T17:22:58;7.07;;;5.85;;
24325;SDS011;12448;45.532;5.290;2024-03-08T17:25:25;7.88;;;4.80;;
24325;SDS011;12448;45.532;5.290;2024-03-08T17:27:52;17.88;;;12.75;;
24325;SDS011;12448;45.532;5.290;2024-03-08T17:30:19;19.35;;;13.15;;
24325;SDS011;12448;45.532;5.290;2024-03-08T17:32:52;45.60;;;23.83;;
24325;SDS011;12448;45.532;5.290;2024-03-08T17:35:22;21.15;;;14.45;;
24325;SDS011;12448;45.532;5.290;2024-03-08T17:37:54;27.85;;;16.85;;
24325;SDS011;12448;45.532;5.290;2024-03-08T17:40:28;36.63;;;20.90;;
24325;SDS011;12448;45.532;5.290;2024-03-08T17:42:55;34.78;;;22.42;;
24325;SDS011;12448;45.532;5.290;2024-03-08T17:45:25;33.70;;;20.00;;
24325;SDS011;12448;45.532;5.290;2024-03-08T17:47:53;246.18;;;124.82;;
24325;SDS011;12448;45.532;5.290;2024-03-08T17:50:20;48.33;;;26.15;;
24325;SDS011;12448;45.532;5.290;2024-03-08T17:52:47;39.00;;;27.13;;
24325;SDS011;12448;45.532;5.290;2024-03-08T17:55:13;89.43;;;54.20;;
24325;SDS011;12448;45.532;5.290;2024-03-08T17:57:43;28.10;;;18.60;;
24325;SDS011;12448;45.532;5.290;2024-03-08T18:00:11;10.40;;;7.32;;
24325;SDS011;12448;45.532;5.290;2024-03-08T18:02:50;2.50;;;2.30;;
24325;SDS011;12448;45.532;5.290;2024-03-08T18:05:19;3.53;;;2.60;;
24325;SDS011;12448;45.532;5.290;2024-03-08T18:07:52;18.20;;;10.45;;
24325;SDS011;12448;45.532;5.290;2024-03-08T18:10:18;29.75;;;19.13;;
24325;SDS011;12448;45.532;5.290;2024-03-08T18:12:46;15.07;;;10.40;;
24325;SDS011;12448;45.532;5.290;2024-03-08T18:15:12;12.27;;;5.97;;
24325;SDS011;12448;45.532;5.290;2024-03-08T18:17:45;9.10;;;5.20;;
24325;SDS011;12448;45.532;5.290;2024-03-08T18:20:17;6.18;;;4.15;;
24325;SDS011;12448;45.532;5.290;2024-03-08T18:22:46;5.97;;;3.78;;
24325;SDS011;12448;45.532;5.290;2024-03-08T18:25:12;8.00;;;2.80;;
24325;SDS011;12448;45.532;5.290;2024-03-08T18:27:43;8.25;;;3.50;;
24325;SDS011;12448;45.532;5.290;2024-03-08T18:30:09;7.63;;;5.30;;
24325;SDS011;12448;45.532;5.290;2024-03-08T18:32:46;6.68;;;3.95;;
24325;SDS011;12448;45.532;5.290;2024-03-08T18:35:12;11.25;;;5.82;;
24325;SDS011;12448;45.532;5.290;2024-03-08T18:37:44;44.20;;;30.60;;
24325;SDS011;12448;45.532;5.290;2024-03-08T18:40:11;8.52;;;6.78;;
24325;SDS011;12448;45.532;5.290;2024-03-08T18:42:40;12.32;;;10.10;;
24325;SDS011;12448;45.532;5.290;2024-03-08T18:45:08;13.27;;;5.78;;
24325;SDS011;12448;45.532;5.290;2024-03-08T18:47:39;11.95;;;4.70;;
24325;SDS011;12448;45.532;5.290;2024-03-08T18:50:06;5.35;;;3.72;;
24325;SDS011;12448;45.532;5.290;2024-03-08T18:52:34;8.73;;;4.30;;
24325;SDS011;12448;45.532;5.290;2024-03-08T18:55:01;10.75;;;6.22;;
24325;SDS011;12448;45.532;5.290;2024-03-08T18:57:27;8.07;;;4.85;;
24325;SDS011;12448;45.532;5.290;2024-03-08T18:59:52;5.38;;;3.80;;
24325;SDS011;12448;45.532;5.290;2024-03-08T19:02:18;11.05;;;8.10;;
24325;SDS011;12448;45.532;5.290;2024-03-08T19:04:47;24.63;;;15.75;;
24325;SDS011;12448;45.532;5.290;2024-03-08T19:07:13;27.67;;;17.60;;
24325;SDS011;12448;45.532;5.290;2024-03-08T19:09:39;11.95;;;9.10;;
24325;SDS011;12448;45.532;5.290;2024-03-08T19:12:07;8.93;;;5.05;;
24325;SDS011;12448;45.532;5.290;2024-03-08T19:14:34;14.77;;;9.10;;
24325;SDS011;12448;45.532;5.290;2024-03-08T19:17:05;14.45;;;9.25;;
24325;SDS011;12448;45.532;5.290;2024-03-08T19:19:35;13.90;;;9.38;;
24325;SDS011;12448;45.532;5.290;2024-03-08T19:22:03;10.93;;;8.15;;
24325;SDS011;12448;45.532;5.290;2024-03-08T19:24:31;26.17;;;17.30;;
24325;SDS011;12448;45.532;5.290;2024-03-08T19:27:00;6.15;;;3.60;;
24325;SDS011;12448;45.532;5.290;2024-03-08T19:29:26;17.50;;;12.10;;
24325;SDS011;12448;45.532;5.290;2024-03-08T19:31:54;6.50;;;4.63;;
24325;SDS011;12448;45.532;5.290;2024-03-08T19:34:21;4.00;;;3.08;;
24325;SDS011;12448;45.532;5.290;2024-03-08T19:36:53;3.92;;;2.20;;
24325;SDS011;12448;45.532;5.290;2024-03-08T19:39:19;3.70;;;2.13;;
24325;SDS011;12448;45.532;5.290;2024-03-08T19:41:47;29.40;;;17.38;;
24325;SDS011;12448;45.532;5.290;2024-03-08T19:44:21;24.25;;;15.98;;
24325;SDS011;12448;45.532;5.290;2024-03-08T19:46:53;21.35;;;12.20;;
24325;SDS011;12448;45.532;5.290;2024-03-08T19:49:20;44.83;;;26.65;;
24325;SDS011;12448;45.532;5.290;2024-03-08T19:51:46;43.25;;;25.63;;
24325;SDS011;12448;45.532;5.290;2024-03-08T19:54:17;32.05;;;18.27;;
24325;SDS011;12448;45.532;5.290;2024-03-08T19:56:46;6.97;;;4.97;;
24325;SDS011;12448;45.532;5.290;2024-03-08T19:59:12;7.35;;;4.85;;
24325;SDS011;12448;45.532;5.290;2024-03-08T20:01:37;6.25;;;4.55;;
24325;SDS011;12448;45.532;5.290;2024-03-08T20:04:06;8.82;;;4.50;;
24325;SDS011;12448;45.532;5.290;2024-03-08T20:06:33;8.20;;;4.03;;
24325;SDS011;12448;45.532;5.290;2024-03-08T20:09:04;6.93;;;3.78;;
24325;SDS011;12448;45.532;5.290;2024-03-08T20:11:31;7.07;;;3.72;;
24325;SDS011;12448;45.532;5.290;2024-03-08T20:13:57;6.82;;;3.90;;
24325;SDS011;12448;45.532;5.290;2024-03-08T20:16:25;13.55;;;6.20;;
24325;SDS011;12448;45.532;5.290;2024-03-08T20:18:51;10.48;;;5.97;;
24325;SDS011;12448;45.532;5.290;2024-03-08T20:21:18;157.75;;;62.58;;
24325;SDS011;12448;45.532;5.290;2024-03-08T20:23:43;190.70;;;77.88;;
24325;SDS011;12448;45.532;5.290;2024-03-08T20:26:09;342.55;;;147.75;;
24325;SDS011;12448;45.532;5.290;2024-03-08T20:28:36;200.98;;;84.97;;
24325;SDS011;12448;45.532;5.290;2024-03-08T20:31:03;173.43;;;76.97;;
24325;SDS011;12448;45.532;5.290;2024-03-08T20:33:30;11.30;;;6.22;;
24325;SDS011;12448;45.532;5.290;2024-03-08T20:35:57;38.17;;;20.90;;
24325;SDS011;12448;45.532;5.290;2024-03-08T20:38:26;63.33;;;34.30;;
24325;SDS011;12448;45.532;5.290;2024-03-08T20:41:05;90.85;;;47.97;;
24325;SDS011;12448;45.532;5.290;2024-03-08T20:43:54;57.05;;;31.70;;
24325;SDS011;12448;45.532;5.290;2024-03-08T20:46:23;25.35;;;12.95;;
24325;SDS011;12448;45.532;5.290;2024-03-08T21:19:11;30.98;;;21.83;;
24325;SDS011;12448;45.532;5.290;2024-03-08T21:21:56;31.15;;;20.05;;
24325;SDS011;12448;45.532;5.290;2024-03-08T21:24:26;26.77;;;15.88;;
24325;SDS011;12448;45.532;5.290;2024-03-08T21:27:23;25.88;;;15.48;;
24325;SDS011;12448;45.532;5.290;2024-03-08T21:30:08;41.22;;;20.58;;
24325;SDS011;12448;45.532;5.290;2024-03-08T21:33:04;50.63;;;26.83;;
24325;SDS011;12448;45.532;5.290;2024-03-08T21:35:37;41.35;;;20.83;;
24325;SDS011;12448;45.532;5.290;2024-03-08T21:38:24;25.05;;;13.55;;
24325;SDS011;12448;45.532;5.290;2024-03-08T21:40:58;13.05;;;8.48;;
24325;SDS011;12448;45.532;5.290;2024-03-08T21:43:26;8.07;;;5.70;;
24325;SDS011;12448;45.532;5.290;2024-03-08T21:46:46;8.60;;;5.72;;
24325;SDS011;12448;45.532;5.290;2024-03-08T21:49:14;8.70;;;6.43;;
24325;SDS011;12448;45.532;5.290;2024-03-08T21:51:40;11.43;;;8.25;;
24325;SDS011;12448;45.532;5.290;2024-03-08T21:54:31;7.70;;;5.35;;
24325;SDS011;12448;45.532;5.290;2024-03-08T22:01:18;3.67;;;2.85;;
24325;SDS011;12448;45.532;5.290;2024-03-08T22:06:29;5.63;;;3.85;;
24325;SDS011;12448;45.532;5.290;2024-03-08T22:09:21;4.82;;;3.50;;
24325;SDS011;12448;45.532;5.290;2024-03-08T22:11:59;5.45;;;4.65;;
24325;SDS011;12448;45.532;5.290;2024-03-08T22:14:31;6.10;;;3.28;;
24325;SDS011;12448;45.532;5.290;2024-03-08T22:16:58;4.75;;;3.00;;
24325;SDS011;12448;45.532;5.290;2024-03-08T22:19:29;3.70;;;2.20;;
24325;SDS011;12448;45.532;5.290;2024-03-08T22:22:00;3.20;;;2.05;;
24325;SDS011;12448;45.532;5.290;2024-03-08T22:24:26;4.30;;;2.80;;
24325;SDS011;12448;45.532;5.290;2024-03-08T22:26:51;3.03;;;1.70;;